createdAt,value
2023-05-10T00:01:37.037Z,99798.69
2023-05-10T00:04:03.625Z,99788.75
2023-05-10T00:06:30.152Z,99790.66
2023-05-10T00:08:56.608Z,99789.16
2023-05-10T00:11:23.257Z,99793.78
2023-05-10T00:13:49.834Z,99790.22
2023-05-10T00:16:17.618Z,99789.50
2023-05-10T00:18:44.117Z,99789.53
2023-05-10T00:21:10.549Z,99784.06
2023-05-10T00:23:36.989Z,99783.31
2023-05-10T00:26:03.352Z,99788.00
2023-05-10T00:28:29.878Z,99784.50
2023-05-10T00:30:57.136Z,99791.09
2023-05-10T00:33:24.888Z,99790.50
2023-05-10T00:35:51.335Z,99789.94
2023-05-10T00:38:17.807Z,99774.81
2023-05-10T00:40:44.310Z,99771.59
2023-05-10T00:43:18.583Z,99775.25
2023-05-10T00:45:45.484Z,99775.25
2023-05-10T00:48:12.025Z,99770.09
2023-05-10T00:50:40.221Z,99766.66
2023-05-10T00:53:07.101Z,99764.97
2023-05-10T00:55:33.690Z,99761.44
2023-05-10T00:58:00.151Z,99757.13
2023-05-10T01:00:26.717Z,99765.34
2023-05-10T01:02:54.349Z,99767.03
2023-05-10T01:05:22.607Z,99762.69
2023-05-10T01:07:50.416Z,99759.84
2023-05-10T01:10:17.216Z,99757.41
2023-05-10T01:12:47.204Z,99761.72
2023-05-10T01:15:17.075Z,99752.94
2023-05-10T01:17:47.678Z,99752.06
2023-05-10T01:20:16.389Z,99752.22
2023-05-10T01:23:24.849Z,99756.03
2023-05-10T01:26:14.880Z,99757.03
2023-05-10T01:29:13.052Z,99756.22
2023-05-10T01:32:09.997Z,99746.75
2023-05-10T01:34:47.836Z,99755.84
2023-05-10T01:37:21.111Z,99746.88
2023-05-10T01:39:55.866Z,99743.63
2023-05-10T01:42:27.595Z,99753.44
2023-05-10T01:44:59.469Z,99748.22
2023-05-10T01:47:35.663Z,99749.16
2023-05-10T01:50:05.642Z,99746.53
2023-05-10T01:52:37.454Z,99740.38
2023-05-10T01:55:07.338Z,99744.03
2023-05-10T01:57:37.916Z,99738.75
2023-05-10T02:00:07.468Z,99738.69
2023-05-10T02:02:46.806Z,99742.28
2023-05-10T02:05:18.047Z,99738.91
2023-05-10T02:07:46.059Z,99743.28
2023-05-10T02:10:14.363Z,99742.28
2023-05-10T02:12:44.010Z,99736.19
2023-05-10T02:15:13.090Z,99738.00
2023-05-10T02:17:41.096Z,99733.75
2023-05-10T02:20:11.106Z,99731.09
2023-05-10T02:22:38.664Z,99728.47
2023-05-10T02:25:07.670Z,99737.53
2023-05-10T02:27:35.521Z,99728.72
2023-05-10T02:30:02.774Z,99733.06
2023-05-10T02:32:30.698Z,99726.03
2023-05-10T02:34:58.217Z,99736.03
2023-05-10T02:37:26.387Z,99725.47
2023-05-10T02:39:55.895Z,99732.66
2023-05-10T02:42:27.031Z,99736.44
2023-05-10T02:44:55.510Z,99731.19
2023-05-10T02:47:22.004Z,99731.19
2023-05-10T02:49:48.742Z,99728.75
2023-05-10T02:52:19.980Z,99725.34
2023-05-10T02:54:51.141Z,99724.41
2023-05-10T02:57:22.433Z,99724.53
2023-05-10T02:59:49.060Z,99728.03
2023-05-10T03:02:15.705Z,99728.94
2023-05-10T03:04:42.245Z,99722.50
2023-05-10T03:07:09.061Z,99725.81
2023-05-10T03:09:36.067Z,99725.78
2023-05-10T03:12:08.631Z,99729.25
2023-05-10T03:14:49.962Z,99726.69
2023-05-10T03:17:23.418Z,99718.84
2023-05-10T03:19:54.514Z,99720.88
2023-05-10T03:22:26.117Z,99722.28
2023-05-10T03:24:56.207Z,99724.88
2023-05-10T03:27:27.020Z,99703.03
2023-05-10T03:29:55.647Z,99719.72
2023-05-10T03:32:22.998Z,99726.03
2023-05-10T03:34:49.436Z,99730.41
2023-05-10T03:37:15.910Z,99713.44
2023-05-10T03:39:42.398Z,99718.44
2023-05-10T03:42:10.124Z,99730.88
2023-05-10T03:44:37.883Z,99725.34
2023-05-10T03:47:04.595Z,99735.09
2023-05-10T03:49:31.164Z,99732.25
2023-05-10T03:51:57.561Z,99733.88
2023-05-10T03:54:23.965Z,99720.34
2023-05-10T03:56:50.396Z,99694.63
2023-05-10T03:59:18.338Z,99726.28
2023-05-10T04:01:46.218Z,99729.63
2023-05-10T04:04:12.802Z,99731.91
2023-05-10T04:06:39.523Z,99735.13
2023-05-10T04:09:06.061Z,99727.81
2023-05-10T04:11:32.579Z,99728.47
2023-05-10T04:13:59.054Z,99714.97
2023-05-10T04:16:25.591Z,99720.06
2023-05-10T04:18:53.468Z,99727.91
2023-05-10T04:21:19.849Z,99726.94
2023-05-10T04:23:46.425Z,99721.09
2023-05-10T04:26:13.609Z,99730.81
2023-05-10T04:28:40.073Z,99737.75
2023-05-10T04:31:08.213Z,99723.22
2023-05-10T04:33:34.790Z,99733.66
2023-05-10T04:36:03.002Z,99731.56
2023-05-10T04:38:29.980Z,99727.59
2023-05-10T04:41:04.798Z,99727.31
2023-05-10T04:43:31.141Z,99731.59
2023-05-10T04:45:57.622Z,99725.69
2023-05-10T04:48:24.101Z,99731.56
2023-05-10T04:50:50.548Z,99740.91
2023-05-10T04:53:18.299Z,99721.38
2023-05-10T04:55:44.632Z,99719.00
2023-05-10T04:58:11.009Z,99720.13
2023-05-10T05:00:37.468Z,99727.50
2023-05-10T05:03:04.453Z,99723.22
2023-05-10T05:05:30.878Z,99729.69
2023-05-10T05:07:57.299Z,99726.56
2023-05-10T05:10:25.069Z,99725.72
2023-05-10T05:12:52.697Z,99726.00
2023-05-10T05:15:19.086Z,99721.22
2023-05-10T05:17:45.604Z,99729.16
2023-05-10T05:20:12.393Z,99722.50
2023-05-10T05:22:38.886Z,99707.22
2023-05-10T05:25:06.497Z,99706.53
2023-05-10T05:27:34.299Z,99712.91
2023-05-10T05:30:00.712Z,99707.97
2023-05-10T05:32:27.280Z,99715.97
2023-05-10T05:34:53.682Z,99710.03
2023-05-10T05:37:21.226Z,99716.06
2023-05-10T05:39:48.406Z,99708.75
2023-05-10T05:42:15.030Z,99714.81
2023-05-10T05:44:44.339Z,99723.28
2023-05-10T05:47:10.881Z,99727.66
2023-05-10T05:49:37.406Z,99736.84
2023-05-10T05:52:04.803Z,99728.75
2023-05-10T05:57:26.031Z,99727.00
2023-05-10T05:59:53.944Z,99732.59
2023-05-10T06:02:20.396Z,99728.63
2023-05-10T06:04:46.854Z,99732.19
2023-05-10T06:07:13.373Z,99741.47
2023-05-10T06:09:39.826Z,99744.25
2023-05-10T06:12:06.407Z,99742.13
2023-05-10T06:14:32.818Z,99740.00
2023-05-10T06:17:00.741Z,99744.44
2023-05-10T06:19:27.266Z,99744.25
2023-05-10T06:21:53.999Z,99745.09
2023-05-10T06:24:20.590Z,99742.78
2023-05-10T06:26:47.043Z,99743.19
2023-05-10T06:29:13.568Z,99743.28
2023-05-10T06:31:39.997Z,99751.25
2023-05-10T06:34:07.813Z,99747.94
2023-05-10T06:36:34.291Z,99755.44
2023-05-10T06:39:01.185Z,99763.38
2023-05-10T06:41:27.533Z,99760.59
2023-05-10T06:43:54.000Z,99755.53
2023-05-10T06:46:20.450Z,99747.16
2023-05-10T06:48:47.035Z,99759.00
2023-05-10T06:51:14.873Z,99752.88
2023-05-10T06:53:41.283Z,99763.91
2023-05-10T06:56:07.730Z,99765.78
2023-05-10T06:58:34.174Z,99761.63
2023-05-10T07:01:04.481Z,99765.00
2023-05-10T07:03:31.002Z,99768.16
2023-05-10T07:06:01.261Z,99767.06
2023-05-10T07:08:29.019Z,99769.75
2023-05-10T07:11:00.709Z,99771.09
2023-05-10T07:13:27.193Z,99774.88
2023-05-10T07:15:53.694Z,99771.75
2023-05-10T07:18:20.165Z,99772.00
2023-05-10T07:20:46.682Z,99774.94
2023-05-10T07:23:15.445Z,99765.28
2023-05-10T07:25:46.125Z,99774.34
2023-05-10T07:28:15.700Z,99777.03
2023-05-10T07:30:42.586Z,99777.47
2023-05-10T07:33:09.688Z,99780.34
2023-05-10T07:35:36.487Z,99780.72
2023-05-10T07:38:08.584Z,99778.69
2023-05-10T07:40:38.019Z,99789.72
2023-05-10T07:43:05.875Z,99790.44
2023-05-10T07:45:32.302Z,99788.50
2023-05-10T07:47:58.759Z,99797.22
2023-05-10T07:50:25.206Z,99797.88
2023-05-10T07:52:51.637Z,99798.03
2023-05-10T07:55:19.646Z,99786.25
2023-05-10T07:57:48.489Z,99805.00
2023-05-10T08:00:21.404Z,99811.81
2023-05-10T08:02:50.595Z,99811.47
2023-05-10T08:05:20.577Z,99809.44
2023-05-10T08:07:46.969Z,99817.59
2023-05-10T08:10:15.575Z,99817.66
2023-05-10T08:12:42.002Z,99811.34
2023-05-10T08:15:11.710Z,99809.19
2023-05-10T08:17:51.363Z,99821.97
2023-05-10T08:20:17.815Z,99810.88
2023-05-10T08:22:44.287Z,99825.44
2023-05-10T08:25:10.711Z,99832.47
2023-05-10T08:27:37.114Z,99845.63
2023-05-10T08:30:04.033Z,99836.84
2023-05-10T08:32:30.510Z,99842.41
2023-05-10T08:34:58.289Z,99839.88
2023-05-10T08:37:25.104Z,99850.34
2023-05-10T08:39:51.483Z,99847.00
2023-05-10T08:42:22.455Z,99845.66
2023-05-10T08:44:49.875Z,99853.06
2023-05-10T08:47:19.038Z,99865.72
2023-05-10T08:49:50.421Z,99861.06
2023-05-10T08:52:19.537Z,99873.50
2023-05-10T08:54:46.062Z,99873.09
2023-05-10T08:57:12.988Z,99880.03
2023-05-10T08:59:52.211Z,99872.06
2023-05-10T09:02:22.467Z,99878.97
2023-05-10T09:04:51.909Z,99888.91
2023-05-10T09:07:25.025Z,99888.78
2023-05-10T09:09:51.905Z,99894.22
2023-05-10T09:12:21.078Z,99892.22
2023-05-10T09:14:49.784Z,99891.44
2023-05-10T09:17:18.867Z,99903.28
2023-05-10T09:19:47.245Z,99899.72
2023-05-10T09:22:13.990Z,99899.25
2023-05-10T09:24:44.477Z,99899.03
2023-05-10T09:27:13.330Z,99907.97
2023-05-10T09:29:42.926Z,99906.38
2023-05-10T09:32:09.757Z,99919.03
2023-05-10T09:34:40.082Z,99908.63
2023-05-10T09:37:06.964Z,99910.66
2023-05-10T09:39:34.758Z,99922.25
2023-05-10T09:42:06.383Z,99920.94
2023-05-10T09:44:33.282Z,99920.53
2023-05-10T09:47:00.017Z,99922.38
2023-05-10T09:49:26.401Z,99927.75
2023-05-10T09:52:03.892Z,99924.41
2023-05-10T09:54:54.756Z,99927.78
2023-05-10T09:57:25.695Z,99919.50
2023-05-10T10:00:05.697Z,99924.59
2023-05-10T10:03:31.370Z,99934.28
2023-05-10T10:06:26.813Z,99924.88
2023-05-10T10:09:08.693Z,99933.56
2023-05-10T10:11:43.105Z,99929.53
2023-05-10T10:14:13.384Z,99922.44
2023-05-10T10:17:41.945Z,99915.28
2023-05-10T10:21:00.908Z,99920.78
2023-05-10T10:23:32.043Z,99942.19
2023-05-10T10:25:59.140Z,99945.94
2023-05-10T10:28:34.514Z,99941.84
2023-05-10T10:31:25.130Z,99943.72
2023-05-10T10:34:10.292Z,99935.31
2023-05-10T10:36:50.957Z,99938.91
2023-05-10T10:39:45.526Z,99945.97
2023-05-10T10:42:35.003Z,99935.91
2023-05-10T10:46:37.937Z,99938.28
2023-05-10T10:51:16.950Z,99949.47
2023-05-10T10:54:15.826Z,99945.44
2023-05-10T10:57:33.530Z,99930.00
2023-05-10T11:04:20.773Z,99940.53
2023-05-10T11:07:22.678Z,99945.66
2023-05-10T11:09:53.483Z,99950.25
2023-05-10T11:12:43.471Z,99953.59
2023-05-10T11:15:35.746Z,99937.88
2023-05-10T11:18:43.408Z,99957.81
2023-05-10T11:21:49.922Z,99957.66
2023-05-10T11:24:29.135Z,99951.31
2023-05-10T11:27:00.816Z,99960.84
2023-05-10T11:29:28.969Z,99965.41
2023-05-10T11:31:58.862Z,99952.81
2023-05-10T11:34:33.407Z,99951.41
2023-05-10T11:37:07.376Z,99963.00
2023-05-10T11:39:37.937Z,99960.66
2023-05-10T11:42:04.740Z,99962.78
2023-05-10T11:44:31.844Z,99974.91
2023-05-10T11:47:02.502Z,99973.66
2023-05-10T11:49:31.604Z,99965.91
2023-05-10T11:52:11.120Z,99967.66
2023-05-10T11:54:48.521Z,99973.75
2023-05-10T11:57:17.540Z,99983.06
2023-05-10T11:59:59.613Z,99972.94
2023-05-10T12:02:36.378Z,99980.38
2023-05-10T12:05:06.676Z,99982.31
2023-05-10T12:07:37.259Z,99970.47
2023-05-10T12:10:16.069Z,99973.38
2023-05-10T12:12:48.382Z,99981.25
2023-05-10T12:15:26.212Z,99974.97
2023-05-10T12:17:54.824Z,99969.88
2023-05-10T12:20:30.110Z,99983.47
2023-05-10T12:23:09.242Z,99987.50
2023-05-10T12:25:38.202Z,99980.53
2023-05-10T12:28:10.307Z,99984.56
2023-05-10T12:30:48.301Z,99989.44
2023-05-10T12:33:23.595Z,99985.81
2023-05-10T12:35:55.153Z,99995.56
2023-05-10T12:38:38.878Z,99997.78
2023-05-10T12:41:16.281Z,100004.81
2023-05-10T12:43:45.977Z,99988.59
2023-05-10T12:46:18.821Z,100003.34
2023-05-10T12:48:55.195Z,100003.94
2023-05-10T12:54:08.721Z,99999.00
2023-05-10T12:56:35.272Z,100007.19
2023-05-10T12:59:04.544Z,100003.41
2023-05-10T13:01:36.337Z,99996.94
2023-05-10T13:04:07.931Z,100011.47
2023-05-10T13:06:50.060Z,99998.56
2023-05-10T13:09:29.358Z,100005.06
2023-05-10T13:12:04.186Z,100000.78
2023-05-10T13:14:33.676Z,100007.25
2023-05-10T13:17:04.150Z,100001.84
2023-05-10T13:19:51.750Z,100003.66
2023-05-10T13:22:32.569Z,100009.66
2023-05-10T13:25:08.478Z,100005.75
2023-05-10T13:27:34.957Z,100006.09
2023-05-10T13:30:01.797Z,100007.25
2023-05-10T13:32:28.315Z,100008.72
2023-05-10T13:34:54.876Z,100009.47
2023-05-10T13:37:21.460Z,99997.09
2023-05-10T13:39:48.143Z,100012.72
2023-05-10T13:42:16.513Z,100008.97
2023-05-10T13:44:43.188Z,100007.56
2023-05-10T13:47:09.878Z,100010.41
2023-05-10T13:49:36.423Z,100020.38
2023-05-10T13:52:02.955Z,100009.47
2023-05-10T13:54:29.435Z,100010.00
2023-05-10T13:56:55.906Z,100007.94
2023-05-10T13:59:23.703Z,100020.53
2023-05-10T14:01:50.215Z,100018.34
2023-05-10T14:04:16.697Z,100005.72
2023-05-10T14:06:43.207Z,100018.72
2023-05-10T14:09:09.773Z,100004.59
2023-05-10T14:11:36.452Z,100005.75
2023-05-10T14:14:02.901Z,100008.13
2023-05-10T14:16:30.823Z,100002.66
2023-05-10T14:18:57.329Z,100017.78
2023-05-10T14:21:23.940Z,100013.00
2023-05-10T14:23:50.398Z,100010.28
2023-05-10T14:26:17.047Z,100021.69
2023-05-10T14:28:43.537Z,100014.84
2023-05-10T14:31:10.001Z,100012.91
2023-05-10T14:33:37.814Z,100018.53
2023-05-10T14:36:04.624Z,100012.53
2023-05-10T14:38:31.142Z,100014.28
2023-05-10T14:40:57.828Z,100000.94
2023-05-10T14:43:24.274Z,100012.00
2023-05-10T14:45:50.809Z,100010.50
2023-05-10T14:48:17.952Z,100016.75
2023-05-10T14:50:46.243Z,100023.09
2023-05-10T14:53:12.728Z,100014.28
2023-05-10T14:55:39.133Z,100023.09
2023-05-10T14:58:05.770Z,100014.72
2023-05-10T15:00:35.120Z,100025.38
2023-05-10T15:03:02.437Z,100028.19
2023-05-10T15:05:29.347Z,100020.50
2023-05-10T15:07:57.852Z,100025.34
2023-05-10T15:10:24.375Z,100033.41
2023-05-10T15:12:50.967Z,100020.06
2023-05-10T15:15:17.794Z,100024.63
2023-05-10T15:17:44.564Z,100018.94
2023-05-10T15:20:11.682Z,100035.56
2023-05-10T15:22:38.121Z,100037.34
2023-05-10T15:25:06.953Z,100044.47
2023-05-10T15:27:33.467Z,100034.28
2023-05-10T15:30:00.061Z,100034.06
2023-05-10T15:32:26.662Z,100026.06
2023-05-10T15:34:53.156Z,100035.50
2023-05-10T15:37:19.570Z,100035.31
2023-05-10T15:39:45.962Z,100028.81
2023-05-10T15:42:13.718Z,100038.22
2023-05-10T15:44:40.104Z,100037.25
2023-05-10T15:47:06.597Z,100032.44
2023-05-10T15:49:33.264Z,100032.19
2023-05-10T15:51:59.690Z,100040.34
2023-05-10T15:54:26.210Z,100036.59
2023-05-10T15:56:52.689Z,100035.88
2023-05-10T15:59:20.570Z,100038.09
2023-05-10T16:01:47.071Z,100031.75
2023-05-10T16:04:15.323Z,100032.00
2023-05-10T16:06:41.753Z,100037.16
2023-05-10T16:09:08.179Z,100040.44
2023-05-10T16:11:34.633Z,100032.19
2023-05-10T16:14:01.032Z,100035.31
2023-05-10T16:16:28.935Z,100031.28
2023-05-10T16:18:57.690Z,100025.16
2023-05-10T16:21:24.219Z,100028.88
2023-05-10T16:23:53.498Z,100035.72
2023-05-10T16:26:19.952Z,100029.38
2023-05-10T16:28:46.805Z,100038.78
2023-05-10T16:31:13.257Z,100041.69
2023-05-10T16:33:41.035Z,100034.31
2023-05-10T16:36:09.435Z,100033.97
2023-05-10T16:38:35.940Z,100041.34
2023-05-10T16:41:02.534Z,100044.00
2023-05-10T16:43:31.187Z,100048.06
2023-05-10T16:45:57.723Z,100044.00
2023-05-10T16:48:24.197Z,100051.09
2023-05-10T16:50:55.171Z,100044.16
2023-05-10T16:53:21.607Z,100046.34
2023-05-10T16:55:48.029Z,100047.41
2023-05-10T16:58:14.457Z,100053.16
2023-05-10T17:00:40.921Z,100052.41
2023-05-10T17:03:07.735Z,100053.06
2023-05-10T17:05:39.765Z,100055.78
2023-05-10T17:08:19.876Z,100052.59
2023-05-10T17:10:46.637Z,100055.13
2023-05-10T17:13:13.648Z,100061.75
2023-05-10T17:15:40.334Z,100044.19
2023-05-10T17:18:07.025Z,100060.69
2023-05-10T17:20:39.163Z,100065.09
2023-05-10T17:23:07.034Z,100062.19
2023-05-10T17:25:35.147Z,100062.03
2023-05-10T17:28:01.900Z,100064.75
2023-05-10T17:30:31.699Z,100060.09
2023-05-10T17:32:58.760Z,100068.75
2023-05-10T17:35:29.527Z,100067.03
2023-05-10T17:37:59.000Z,100055.47
2023-05-10T17:40:26.756Z,100067.53
2023-05-10T17:42:53.183Z,100064.75
2023-05-10T17:45:35.038Z,100062.81
2023-05-10T17:48:01.543Z,100079.19
2023-05-10T17:50:28.004Z,100070.72
2023-05-10T17:52:54.497Z,100077.25
2023-05-10T17:55:20.924Z,100072.13
2023-05-10T17:57:51.147Z,100079.66
2023-05-10T18:00:24.603Z,100074.50
2023-05-10T18:02:53.486Z,100072.72
2023-05-10T18:05:23.232Z,100070.88
2023-05-10T18:07:49.950Z,100073.59
2023-05-10T18:10:16.506Z,100068.06
2023-05-10T18:12:44.100Z,100068.25
2023-05-10T18:15:20.780Z,100086.19
2023-05-10T18:17:52.185Z,100076.19
2023-05-10T18:20:18.889Z,100075.25
2023-05-10T18:22:45.279Z,100083.94
2023-05-10T18:25:11.706Z,100078.03
2023-05-10T18:27:38.387Z,100086.47
2023-05-10T18:30:08.695Z,100088.53
2023-05-10T18:32:37.668Z,100081.34
2023-05-10T18:35:10.127Z,100078.88
2023-05-10T18:37:42.509Z,100095.44
2023-05-10T18:40:09.524Z,100093.47
2023-05-10T18:42:36.050Z,100099.75
2023-05-10T18:45:02.955Z,100100.88
2023-05-10T18:47:35.404Z,100098.34
2023-05-10T18:50:04.810Z,100098.09
2023-05-10T18:52:33.938Z,100091.13
2023-05-10T18:55:03.947Z,100102.00
2023-05-10T18:57:30.416Z,100102.00
2023-05-10T18:59:57.135Z,100104.28
2023-05-10T19:02:23.586Z,100105.31
2023-05-10T19:04:52.444Z,100108.97
2023-05-10T19:07:20.413Z,100102.81
2023-05-10T19:09:47.013Z,100101.22
2023-05-10T19:12:13.587Z,100114.44
2023-05-10T19:14:40.165Z,100127.91
2023-05-10T19:17:06.666Z,100120.94
2023-05-10T19:19:33.262Z,100124.47
2023-05-10T19:21:59.977Z,100113.72
2023-05-10T19:24:28.047Z,100128.00
2023-05-10T19:26:54.715Z,100129.75
2023-05-10T19:29:21.152Z,100115.63
2023-05-10T19:31:47.870Z,100124.47
2023-05-10T19:34:14.611Z,100134.25
2023-05-10T19:36:44.579Z,100120.63
2023-05-10T19:39:11.226Z,100129.75
2023-05-10T19:41:39.172Z,100130.72
2023-05-10T19:44:05.690Z,100121.66
2023-05-10T19:46:32.195Z,100138.88
2023-05-10T19:48:58.647Z,100138.00
2023-05-10T19:51:25.100Z,100137.09
2023-05-10T19:53:51.687Z,100129.34
2023-05-10T19:56:18.373Z,100150.13
2023-05-10T19:58:46.398Z,100153.13
2023-05-10T20:01:14.828Z,100160.31
2023-05-10T20:03:41.386Z,100150.72
2023-05-10T20:06:08.088Z,100154.50
2023-05-10T20:08:34.482Z,100155.31
2023-05-10T20:11:01.189Z,100166.28
2023-05-10T20:13:27.955Z,100162.69
2023-05-10T20:15:57.055Z,100160.09
2023-05-10T20:18:23.751Z,100160.25
2023-05-10T20:20:53.402Z,100164.59
2023-05-10T20:23:19.983Z,100174.47
2023-05-10T20:25:46.540Z,100165.41
2023-05-10T20:28:12.989Z,100166.50
2023-05-10T20:30:39.410Z,100162.00
2023-05-10T20:33:07.210Z,100160.03
2023-05-10T20:35:33.741Z,100154.81
2023-05-10T20:38:00.157Z,100153.47
2023-05-10T20:40:26.604Z,100155.41
2023-05-10T20:42:53.056Z,100153.47
2023-05-10T20:45:19.664Z,100160.69
2023-05-10T20:47:46.251Z,100164.38
2023-05-10T20:50:14.084Z,100163.47
2023-05-10T20:52:40.539Z,100159.97
2023-05-10T20:55:07.900Z,100160.09
2023-05-10T20:57:34.279Z,100160.75
2023-05-10T21:00:00.734Z,100166.34
2023-05-10T21:02:27.299Z,100164.50
2023-05-10T21:04:56.330Z,100156.56
2023-05-10T21:07:25.516Z,100160.97
2023-05-10T21:09:52.063Z,100166.28
2023-05-10T21:12:18.593Z,100161.97
2023-05-10T21:14:45.054Z,100158.19
2023-05-10T21:17:11.573Z,100165.41
2023-05-10T21:19:38.048Z,100162.59
2023-05-10T21:22:10.718Z,100160.75
2023-05-10T21:24:46.980Z,100164.38
2023-05-10T21:27:13.406Z,100162.50
2023-05-10T21:29:39.888Z,100168.94
2023-05-10T21:32:06.577Z,100158.19
2023-05-10T21:34:33.098Z,100162.59
2023-05-10T21:36:59.626Z,100167.16
2023-05-10T21:39:26.235Z,100163.47
2023-05-10T21:41:54.319Z,100172.59
2023-05-10T21:44:21.288Z,100161.69
2023-05-10T21:46:47.757Z,100170.84
2023-05-10T21:49:14.307Z,100166.44
2023-05-10T21:51:40.829Z,100177.22
2023-05-10T21:54:07.256Z,100171.16
2023-05-10T21:56:33.725Z,100183.66
2023-05-10T21:59:01.933Z,100180.94
2023-05-10T22:01:28.525Z,100181.94
2023-05-10T22:03:55.007Z,100183.78
2023-05-10T22:06:21.452Z,100180.25
2023-05-10T22:08:47.910Z,100174.00
2023-05-10T22:11:14.397Z,100186.50
2023-05-10T22:13:40.831Z,100185.56
2023-05-10T22:16:08.622Z,100182.16
2023-05-10T22:18:35.213Z,100187.47
2023-05-10T22:21:01.661Z,100181.22
2023-05-10T22:23:28.147Z,100193.81
2023-05-10T22:25:58.834Z,100176.72
2023-05-10T22:28:25.443Z,100184.75
2023-05-10T22:30:51.983Z,100174.81
2023-05-10T22:33:31.882Z,100171.28
2023-05-10T22:35:58.364Z,100164.25
2023-05-10T22:38:26.806Z,100173.19
2023-05-10T22:40:53.318Z,100173.19
2023-05-10T22:43:25.093Z,100176.09
2023-05-10T22:45:51.544Z,100182.16
2023-05-10T22:48:17.993Z,100182.16
2023-05-10T22:50:45.818Z,100180.34
2023-05-10T22:53:12.257Z,100181.22
2023-05-10T22:55:38.764Z,100186.50
2023-05-10T22:58:05.848Z,100180.25
2023-05-10T23:00:32.506Z,100183.94
2023-05-10T23:02:59.149Z,100188.41
2023-05-10T23:05:25.690Z,100183.78
2023-05-10T23:07:53.468Z,100174.25
2023-05-10T23:10:20.132Z,100189.41
2023-05-10T23:12:46.590Z,100188.50
2023-05-10T23:15:13.075Z,100197.56
2023-05-10T23:17:39.570Z,100190.59
2023-05-10T23:20:07.355Z,100194.97
2023-05-10T23:22:33.757Z,100194.84
2023-05-10T23:25:01.627Z,100189.06
2023-05-10T23:27:28.917Z,100194.97
2023-05-10T23:29:55.409Z,100191.31
2023-05-10T23:32:22.248Z,100191.31
2023-05-10T23:34:48.924Z,100199.31
2023-05-10T23:37:15.473Z,100196.75
2023-05-10T23:39:41.911Z,100196.84
2023-05-10T23:42:09.687Z,100189.69
2023-05-10T23:44:36.097Z,100189.69
2023-05-10T23:47:02.525Z,100196.97
2023-05-10T23:49:31.305Z,100178.97
2023-05-10T23:51:57.730Z,100189.63
2023-05-10T23:54:24.135Z,100193.41
2023-05-10T23:56:50.580Z,100189.78
2023-05-10T23:59:18.359Z,100175.44
